Time;durP1;ratioP1;P1;durP2;ratioP2;P2;SDS_P1;SDS_P2;PMS_P1;PMS_P2;Temp;Humidity;BMP_temperature;BMP_pressure;BME280_temperature;BME280_humidity;BME280_pressure;Samples;Min_cycle;Max_cycle;Signal;HPM_P1;HPM_P2
2022/01/07 00:01:07;;;;;;;13.73;8.30;;;;;;;;;;5069115;28;20499;-56
2022/01/07 00:03:33;;;;;;;18.93;9.23;;;;;;;;;;5055710;28;20036;-63
2022/01/07 00:05:59;;;;;;;20.10;10.15;;;;;;;;;;5049913;28;20479;-58
2022/01/07 00:08:25;;;;;;;11.30;7.72;;;;;;;;;;5051531;28;20221;-58
2022/01/07 00:10:50;;;;;;;15.70;7.93;;;;;;;;;;5057509;28;20028;-58
2022/01/07 00:13:16;;;;;;;14.20;8.45;;;;;;;;;;5071563;28;20027;-58
2022/01/07 00:15:41;;;;;;;10.38;7.90;;;;;;;;;;5069515;28;20029;-58
2022/01/07 00:18:07;;;;;;;20.50;9.15;;;;;;;;;;5070400;28;20051;-57
2022/01/07 00:20:32;;;;;;;18.52;9.45;;;;;;;;;;5069564;28;20048;-58
2022/01/07 00:22:57;;;;;;;23.42;12.07;;;;;;;;;;5071166;28;20048;-58
2022/01/07 00:25:23;;;;;;;17.88;7.75;;;;;;;;;;5069131;28;20037;-58
2022/01/07 00:27:49;;;;;;;22.20;9.90;;;;;;;;;;5071227;28;20134;-58
2022/01/07 00:30:15;;;;;;;17.35;9.00;;;;;;;;;;5069613;28;20455;-58
2022/01/07 00:32:40;;;;;;;19.08;9.45;;;;;;;;;;5065353;28;20112;-58
2022/01/07 00:35:06;;;;;;;10.70;7.03;;;;;;;;;;5049544;28;20430;-58
2022/01/07 00:37:31;;;;;;;17.88;8.55;;;;;;;;;;5050768;28;20074;-60
2022/01/07 00:39:56;;;;;;;20.80;8.43;;;;;;;;;;5049408;28;20029;-58
2022/01/07 00:42:22;;;;;;;15.82;8.77;;;;;;;;;;5071056;28;20497;-59
2022/01/07 00:44:47;;;;;;;15.00;8.82;;;;;;;;;;5069090;28;20021;-58
2022/01/07 00:47:12;;;;;;;17.05;8.85;;;;;;;;;;5070914;28;20031;-58
2022/01/07 00:49:37;;;;;;;19.23;9.53;;;;;;;;;;5069055;28;20025;-58
2022/01/07 00:52:03;;;;;;;21.20;9.10;;;;;;;;;;5070802;28;20501;-58
2022/01/07 00:54:28;;;;;;;10.88;7.70;;;;;;;;;;5070247;28;20035;-58
2022/01/07 00:56:53;;;;;;;19.73;7.72;;;;;;;;;;5049962;28;20036;-58
2022/01/07 00:59:18;;;;;;;13.93;10.10;;;;;;;;;;5050698;28;20055;-58
2022/01/07 01:01:44;;;;;;;11.25;8.50;;;;;;;;;;5048563;28;20033;-58
2022/01/07 01:04:09;;;;;;;9.70;7.15;;;;;;;;;;5070703;28;20527;-58
2022/01/07 01:06:34;;;;;;;26.63;9.57;;;;;;;;;;5068829;28;20039;-58
2022/01/07 01:09:00;;;;;;;13.68;8.60;;;;;;;;;;5052113;28;20522;-59
2022/01/07 01:11:25;;;;;;;15.52;8.02;;;;;;;;;;5048938;28;20057;-59
2022/01/07 01:13:50;;;;;;;17.13;8.23;;;;;;;;;;5050062;28;20013;-58
2022/01/07 01:16:15;;;;;;;19.52;9.50;;;;;;;;;;5048642;28;20451;-58
2022/01/07 01:18:40;;;;;;;15.97;8.93;;;;;;;;;;5049968;28;20048;-58
2022/01/07 01:21:05;;;;;;;14.40;8.93;;;;;;;;;;5049067;28;20440;-58
2022/01/07 01:23:32;;;;;;;25.95;10.85;;;;;;;;;;5049976;28;20945;-58
2022/01/07 01:25:57;;;;;;;22.48;9.32;;;;;;;;;;5048785;28;20041;-58
2022/01/07 01:28:22;;;;;;;20.52;9.20;;;;;;;;;;5050363;28;20052;-58
2022/01/07 01:30:47;;;;;;;12.55;8.13;;;;;;;;;;5048434;28;20040;-58
2022/01/07 01:33:13;;;;;;;18.73;10.37;;;;;;;;;;5062005;28;20052;-58
2022/01/07 01:35:39;;;;;;;29.67;13.18;;;;;;;;;;5059505;28;20460;-58
2022/01/07 01:38:04;;;;;;;13.57;9.07;;;;;;;;;;5050020;28;20092;-59
2022/01/07 01:40:29;;;;;;;17.52;10.45;;;;;;;;;;5048529;28;20123;-58
2022/01/07 01:42:56;;;;;;;18.77;10.17;;;;;;;;;;5050515;28;20051;-58
2022/01/07 01:45:22;;;;;;;17.10;10.35;;;;;;;;;;5048690;28;20033;-58
2022/01/07 01:47:47;;;;;;;20.58;9.90;;;;;;;;;;5049459;28;20025;-58
2022/01/07 01:50:13;;;;;;;32.85;10.52;;;;;;;;;;5048699;28;20040;-58
2022/01/07 01:52:43;;;;;;;23.80;10.02;;;;;;;;;;5050252;28;20024;-58
2022/01/07 01:55:08;;;;;;;26.67;11.55;;;;;;;;;;5048340;28;20569;-58
2022/01/07 01:57:33;;;;;;;16.15;11.40;;;;;;;;;;5049797;28;20029;-58
2022/01/07 01:59:58;;;;;;;23.58;12.05;;;;;;;;;;5059835;28;20037;-59
2022/01/07 02:02:24;;;;;;;18.88;12.18;;;;;;;;;;5066774;28;20031;-58
2022/01/07 02:04:49;;;;;;;17.00;10.25;;;;;;;;;;5048545;28;20098;-58
2022/01/07 02:07:14;;;;;;;24.35;13.70;;;;;;;;;;5049851;28;20021;-58
2022/01/07 02:09:39;;;;;;;20.23;12.55;;;;;;;;;;5048029;28;20103;-59
2022/01/07 02:12:05;;;;;;;25.67;15.75;;;;;;;;;;5050409;28;20087;-58
2022/01/07 02:14:30;;;;;;;20.80;12.57;;;;;;;;;;5048576;28;20048;-58
2022/01/07 02:17:02;;;;;;;28.10;13.68;;;;;;;;;;5049419;28;20017;-58
2022/01/07 02:19:30;;;;;;;21.35;13.43;;;;;;;;;;5048363;28;20508;-58
2022/01/07 02:21:55;;;;;;;20.00;13.85;;;;;;;;;;5049862;28;20545;-58
2022/01/07 02:24:21;;;;;;;30.17;15.82;;;;;;;;;;5049069;28;20062;-58
2022/01/07 02:26:47;;;;;;;26.20;12.80;;;;;;;;;;5053042;28;20484;-58
2022/01/07 02:29:12;;;;;;;17.65;14.48;;;;;;;;;;5032211;28;20037;-58
2022/01/07 02:31:38;;;;;;;27.88;14.55;;;;;;;;;;5033035;28;20148;-58
2022/01/07 02:34:03;;;;;;;25.30;16.43;;;;;;;;;;5032061;28;20133;-58
2022/01/07 02:36:28;;;;;;;26.48;18.02;;;;;;;;;;5063728;28;20999;-58
2022/01/07 02:38:53;;;;;;;19.45;14.10;;;;;;;;;;5071316;28;20111;-58
2022/01/07 02:41:18;;;;;;;28.03;16.03;;;;;;;;;;5073253;28;20031;-57
2022/01/07 02:43:43;;;;;;;25.80;14.63;;;;;;;;;;5071448;28;20418;-58
2022/01/07 02:46:09;;;;;;;22.03;16.13;;;;;;;;;;5072485;28;20067;-58
2022/01/07 02:48:34;;;;;;;31.20;15.90;;;;;;;;;;5072787;28;20426;-58
2022/01/07 02:50:59;;;;;;;44.60;19.45;;;;;;;;;;5071289;28;20036;-58
2022/01/07 02:53:24;;;;;;;25.50;17.48;;;;;;;;;;5072648;28;20576;-58
2022/01/07 02:55:50;;;;;;;33.03;18.33;;;;;;;;;;5071299;28;20052;-58
2022/01/07 02:58:15;;;;;;;23.77;16.75;;;;;;;;;;5072852;28;20419;-58
2022/01/07 03:00:40;;;;;;;32.10;17.80;;;;;;;;;;5069598;28;20032;-58
2022/01/07 03:03:07;;;;;;;28.43;19.67;;;;;;;;;;5072666;28;20029;-58
2022/01/07 03:05:32;;;;;;;31.20;18.23;;;;;;;;;;5059021;28;20455;-58
2022/01/07 03:07:57;;;;;;;26.97;16.73;;;;;;;;;;5052698;28;20017;-58
2022/01/07 03:10:26;;;;;;;35.08;17.25;;;;;;;;;;5051225;28;21045;-58
2022/01/07 03:12:51;;;;;;;26.08;17.05;;;;;;;;;;5052414;28;20021;-58
2022/01/07 03:15:16;;;;;;;31.07;19.00;;;;;;;;;;5050904;28;20120;-58
2022/01/07 03:17:41;;;;;;;34.85;17.63;;;;;;;;;;5052177;28;20925;-58
2022/01/07 03:20:08;;;;;;;25.45;17.63;;;;;;;;;;5052519;28;20095;-58
2022/01/07 03:22:34;;;;;;;21.23;16.95;;;;;;;;;;5072074;28;20053;-58
2022/01/07 03:25:00;;;;;;;43.95;25.08;;;;;;;;;;5070719;28;20514;-58
2022/01/07 03:27:25;;;;;;;24.70;18.05;;;;;;;;;;5072006;28;20555;-58
2022/01/07 03:29:50;;;;;;;35.38;19.73;;;;;;;;;;5070192;28;20033;-58
2022/01/07 03:32:15;;;;;;;33.47;21.15;;;;;;;;;;5072412;28;20021;-58
2022/01/07 03:34:40;;;;;;;33.13;19.25;;;;;;;;;;5066268;28;20480;-58
2022/01/07 03:37:05;;;;;;;27.07;18.93;;;;;;;;;;5052110;28;20025;-58
2022/01/07 03:39:31;;;;;;;26.77;18.83;;;;;;;;;;5050500;28;20447;-58
2022/01/07 03:41:56;;;;;;;25.80;18.58;;;;;;;;;;5051951;28;20029;-58
2022/01/07 03:44:21;;;;;;;34.03;18.90;;;;;;;;;;5064986;28;20044;-58
2022/01/07 03:46:46;;;;;;;29.33;17.55;;;;;;;;;;5071571;28;20868;-58
2022/01/07 03:49:11;;;;;;;22.83;18.27;;;;;;;;;;5070624;28;20028;-58
2022/01/07 03:51:37;;;;;;;25.13;18.35;;;;;;;;;;5071286;28;21056;-58
2022/01/07 03:54:02;;;;;;;27.60;16.60;;;;;;;;;;5070698;28;20024;-58
2022/01/07 03:56:27;;;;;;;27.95;17.52;;;;;;;;;;5071623;28;20031;-59
2022/01/07 03:58:52;;;;;;;26.88;18.48;;;;;;;;;;5056199;28;20103;-59
2022/01/07 04:01:17;;;;;;;26.20;17.52;;;;;;;;;;5051759;28;20449;-59
2022/01/07 04:03:43;;;;;;;32.92;16.98;;;;;;;;;;5049916;28;20017;-59
2022/01/07 04:06:08;;;;;;;24.93;15.73;;;;;;;;;;5066671;28;20074;-59
2022/01/07 04:08:33;;;;;;;28.02;17.25;;;;;;;;;;5071282;28;20774;-59
2022/01/07 04:10:58;;;;;;;30.73;16.35;;;;;;;;;;5069932;28;20031;-59
2022/01/07 04:13:23;;;;;;;28.30;17.03;;;;;;;;;;5071302;28;20070;-59
2022/01/07 04:15:48;;;;;;;22.23;15.60;;;;;;;;;;5069335;28;20443;-59
2022/01/07 04:18:14;;;;;;;24.37;16.87;;;;;;;;;;5071081;28;20434;-58
2022/01/07 04:20:39;;;;;;;25.70;16.60;;;;;;;;;;5069045;28;20466;-59
2022/01/07 04:23:05;;;;;;;29.10;18.15;;;;;;;;;;5070811;28;20103;-58
2022/01/07 04:25:30;;;;;;;26.85;17.55;;;;;;;;;;5069137;28;20395;-58
2022/01/07 04:28:00;;;;;;;19.58;14.95;;;;;;;;;;5071361;28;20089;-58
2022/01/07 04:30:29;;;;;;;30.83;17.20;;;;;;;;;;5069287;28;20033;-58
2022/01/07 04:32:54;;;;;;;27.73;17.80;;;;;;;;;;5071192;28;20024;-58
2022/01/07 04:35:19;;;;;;;32.40;18.97;;;;;;;;;;5060327;28;20052;-58
2022/01/07 04:37:45;;;;;;;25.65;16.73;;;;;;;;;;5050627;28;20431;-58
2022/01/07 04:40:11;;;;;;;29.23;19.90;;;;;;;;;;5049693;28;20124;-59
2022/01/07 04:42:36;;;;;;;33.30;16.58;;;;;;;;;;5050424;28;20028;-58
2022/01/07 04:45:02;;;;;;;24.13;16.80;;;;;;;;;;5028902;28;20040;-58
2022/01/07 04:47:27;;;;;;;28.77;14.43;;;;;;;;;;5030540;28;20475;-58
2022/01/07 04:49:53;;;;;;;36.05;16.50;;;;;;;;;;5029312;28;20033;-58
2022/01/07 04:52:20;;;;;;;26.20;15.50;;;;;;;;;;5030536;28;20033;-58
2022/01/07 04:54:46;;;;;;;22.83;14.50;;;;;;;;;;5029218;28;20491;-59
2022/01/07 04:57:11;;;;;;;25.65;15.63;;;;;;;;;;5030810;28;20053;-59
2022/01/07 04:59:36;;;;;;;31.95;16.00;;;;;;;;;;5049074;28;20043;-58
2022/01/07 05:02:01;;;;;;;30.48;16.60;;;;;;;;;;5050895;28;20116;-59
2022/01/07 05:04:26;;;;;;;20.33;14.35;;;;;;;;;;5053001;28;20064;-59
2022/01/07 05:06:52;;;;;;;24.83;15.63;;;;;;;;;;5070107;28;20024;-58
2022/01/07 05:09:18;;;;;;;29.90;16.08;;;;;;;;;;5069079;28;20968;-58
2022/01/07 05:11:44;;;;;;;22.42;12.60;;;;;;;;;;5070425;28;20016;-56
2022/01/07 05:14:09;;;;;;;21.80;14.52;;;;;;;;;;5065992;28;20036;-58
2022/01/07 05:16:34;;;;;;;20.63;14.10;;;;;;;;;;5058236;28;20039;-58
2022/01/07 05:19:00;;;;;;;27.70;15.45;;;;;;;;;;5049330;28;20601;-57
2022/01/07 05:21:25;;;;;;;19.33;15.23;;;;;;;;;;5053863;28;20059;-58
2022/01/07 05:23:50;;;;;;;19.60;12.27;;;;;;;;;;5049772;28;20302;-58
2022/01/07 05:26:15;;;;;;;16.02;12.93;;;;;;;;;;5053002;28;20456;-57
2022/01/07 05:28:40;;;;;;;28.33;16.10;;;;;;;;;;5048672;28;20017;-57
2022/01/07 05:31:05;;;;;;;16.10;12.93;;;;;;;;;;5063710;28;20726;-58
2022/01/07 05:33:31;;;;;;;17.10;13.00;;;;;;;;;;5070483;28;20042;-57
2022/01/07 05:35:56;;;;;;;25.42;14.65;;;;;;;;;;5068475;28;21076;-57
2022/01/07 05:38:21;;;;;;;17.98;13.10;;;;;;;;;;5068475;28;20020;-58
2022/01/07 05:40:46;;;;;;;17.95;12.68;;;;;;;;;;5068663;28;20430;-58
2022/01/07 05:43:11;;;;;;;19.67;12.87;;;;;;;;;;5063606;28;20434;-58
2022/01/07 05:45:36;;;;;;;22.55;14.52;;;;;;;;;;5060259;28;20036;-55
2022/01/07 05:48:03;;;;;;;18.00;13.27;;;;;;;;;;5070211;28;20024;-55
2022/01/07 05:50:28;;;;;;;22.45;13.25;;;;;;;;;;5068232;28;20025;-56
2022/01/07 05:52:54;;;;;;;33.88;15.43;;;;;;;;;;5070269;28;20471;-56
2022/01/07 05:55:19;;;;;;;25.73;14.87;;;;;;;;;;5068689;28;20037;-54
2022/01/07 05:57:44;;;;;;;20.10;13.80;;;;;;;;;;5069688;28;20056;-56
2022/01/07 06:00:10;;;;;;;19.67;14.90;;;;;;;;;;5070917;28;20993;-55
2022/01/07 06:02:36;;;;;;;22.75;15.73;;;;;;;;;;5073942;28;20454;-55
2022/01/07 06:05:01;;;;;;;22.35;15.23;;;;;;;;;;5071935;28;20130;-56
2022/01/07 06:07:27;;;;;;;25.92;14.25;;;;;;;;;;5073778;28;20023;-55
2022/01/07 06:09:52;;;;;;;20.83;15.00;;;;;;;;;;5072243;28;20033;-56
2022/01/07 06:12:17;;;;;;;26.55;13.50;;;;;;;;;;5073222;28;20463;-56
2022/01/07 06:14:42;;;;;;;33.75;12.50;;;;;;;;;;5072010;28;20039;-55
2022/01/07 06:17:10;;;;;;;18.93;13.93;;;;;;;;;;5073925;28;20026;-56
2022/01/07 06:19:35;;;;;;;21.63;12.43;;;;;;;;;;5071538;28;20466;-55
2022/01/07 06:22:00;;;;;;;23.30;17.80;;;;;;;;;;5060184;28;20028;-56
2022/01/07 06:24:25;;;;;;;24.53;13.87;;;;;;;;;;5050204;28;20830;-56
2022/01/07 06:26:50;;;;;;;21.80;14.30;;;;;;;;;;5052007;28;20025;-55
2022/01/07 06:29:15;;;;;;;19.70;13.82;;;;;;;;;;5051787;28;20033;-55
2022/01/07 06:31:41;;;;;;;24.17;13.07;;;;;;;;;;5052146;28;20488;-55
2022/01/07 06:34:06;;;;;;;27.10;15.20;;;;;;;;;;5051057;28;20116;-55
2022/01/07 06:36:31;;;;;;;21.40;13.20;;;;;;;;;;5052646;28;20021;-54
2022/01/07 06:38:58;;;;;;;14.73;11.60;;;;;;;;;;5051492;28;20451;-56
2022/01/07 06:41:23;;;;;;;16.58;12.18;;;;;;;;;;5053458;28;20017;-55
2022/01/07 06:43:48;;;;;;;14.50;12.63;;;;;;;;;;5051137;28;20082;-56
2022/01/07 06:46:13;;;;;;;16.63;12.90;;;;;;;;;;5053206;28;20100;-55
2022/01/07 06:48:40;;;;;;;15.93;13.52;;;;;;;;;;5052900;28;20419;-55
2022/01/07 06:51:06;;;;;;;19.20;15.02;;;;;;;;;;5051320;28;20484;-55
2022/01/07 06:53:31;;;;;;;16.03;12.10;;;;;;;;;;5052739;28;20021;-56
2022/01/07 06:55:57;;;;;;;16.17;11.73;;;;;;;;;;5051159;28;20439;-56
2022/01/07 06:58:22;;;;;;;17.58;12.50;;;;;;;;;;5052507;28;20985;-56
2022/01/07 07:00:47;;;;;;;13.95;11.20;;;;;;;;;;5051122;28;20048;-55
2022/01/07 07:03:12;;;;;;;15.20;12.40;;;;;;;;;;5052880;28;20416;-56
2022/01/07 07:05:38;;;;;;;30.97;14.50;;;;;;;;;;5050604;28;20479;-56
2022/01/07 07:08:03;;;;;;;21.73;13.48;;;;;;;;;;5052933;28;20454;-55
2022/01/07 07:10:28;;;;;;;18.00;12.13;;;;;;;;;;5050942;28;20079;-55
2022/01/07 07:12:53;;;;;;;18.00;13.50;;;;;;;;;;5052414;28;20020;-55
2022/01/07 07:15:18;;;;;;;17.30;13.38;;;;;;;;;;5051078;28;20052;-56
2022/01/07 07:17:45;;;;;;;15.63;12.80;;;;;;;;;;5051747;28;20024;-56
2022/01/07 07:20:11;;;;;;;21.42;14.45;;;;;;;;;;5049910;28;20873;-55
2022/01/07 07:22:36;;;;;;;21.73;14.40;;;;;;;;;;5051528;28;20025;-56
2022/01/07 07:25:01;;;;;;;19.92;12.95;;;;;;;;;;5050323;28;20059;-56
2022/01/07 07:27:26;;;;;;;16.73;14.35;;;;;;;;;;5051338;28;20052;-56
2022/01/07 07:29:51;;;;;;;19.33;13.83;;;;;;;;;;5047525;28;20029;-56
2022/01/07 07:32:22;;;;;;;26.52;14.52;;;;;;;;;;5051644;28;20092;-55
2022/01/07 07:35:00;;;;;;;15.63;14.05;;;;;;;;;;5049850;28;20175;-55
2022/01/07 07:37:26;;;;;;;24.02;15.95;;;;;;;;;;5051741;28;20017;-55
2022/01/07 07:39:51;;;;;;;18.10;15.63;;;;;;;;;;5050008;28;20116;-55
2022/01/07 07:42:16;;;;;;;19.30;14.43;;;;;;;;;;5051146;28;20101;-55
2022/01/07 07:44:41;;;;;;;18.45;15.32;;;;;;;;;;5049768;28;20511;-57
2022/01/07 07:47:06;;;;;;;22.67;16.42;;;;;;;;;;5051724;28;20068;-55
2022/01/07 07:49:32;;;;;;;27.20;14.77;;;;;;;;;;5048977;28;20044;-55
2022/01/07 07:51:57;;;;;;;30.08;16.17;;;;;;;;;;5051289;28;20431;-56
2022/01/07 07:54:22;;;;;;;23.20;16.30;;;;;;;;;;5050031;28;20029;-55
2022/01/07 07:56:48;;;;;;;20.67;14.60;;;;;;;;;;5050899;28;20332;-55
2022/01/07 07:59:13;;;;;;;26.90;18.23;;;;;;;;;;5049792;28;20119;-55
2022/01/07 08:01:38;;;;;;;24.95;16.95;;;;;;;;;;5050994;28;20978;-55
2022/01/07 08:04:04;;;;;;;26.60;17.60;;;;;;;;;;5049356;28;20049;-56
2022/01/07 08:06:29;;;;;;;25.67;16.75;;;;;;;;;;5050273;28;20020;-56
2022/01/07 08:08:54;;;;;;;21.33;16.70;;;;;;;;;;5049613;28;20460;-55
2022/01/07 08:11:21;;;;;;;29.20;17.53;;;;;;;;;;5050994;28;20021;-55
2022/01/07 08:16:31;;;;;;;23.00;17.42;;;;;;;;;;5048893;28;20075;-55
2022/01/07 08:18:57;;;;;;;19.60;16.58;;;;;;;;;;5048976;28;20049;-55
2022/01/07 08:21:25;;;;;;;21.95;16.58;;;;;;;;;;5050493;28;20013;-55
2022/01/07 08:23:51;;;;;;;28.48;17.85;;;;;;;;;;5048649;28;20020;-55
2022/01/07 08:26:17;;;;;;;53.88;19.90;;;;;;;;;;5050338;28;20025;-56
2022/01/07 08:28:47;;;;;;;30.45;20.30;;;;;;;;;;5048856;28;20372;-55
2022/01/07 08:36:28;;;;;;;25.48;18.52;;;;;;;;;;5048757;28;20547;-56
2022/01/07 08:38:53;;;;;;;23.38;17.63;;;;;;;;;;5049567;28;20056;-56
2022/01/07 08:41:20;;;;;;;27.88;19.65;;;;;;;;;;5050669;28;20572;-55
2022/01/07 08:43:45;;;;;;;33.63;18.70;;;;;;;;;;5049266;28;20024;-55
2022/01/07 08:46:11;;;;;;;26.57;17.30;;;;;;;;;;5050981;28;20396;-56
2022/01/07 08:48:37;;;;;;;24.17;16.40;;;;;;;;;;5050050;28;20416;-56
2022/01/07 08:51:03;;;;;;;25.17;19.38;;;;;;;;;;5049466;28;20452;-56
2022/01/07 08:53:28;;;;;;;30.77;18.77;;;;;;;;;;5051109;28;20059;-55
2022/01/07 08:55:53;;;;;;;26.13;19.42;;;;;;;;;;5048896;28;20408;-55
2022/01/07 08:58:18;;;;;;;27.17;18.98;;;;;;;;;;5050681;28;20040;-55
2022/01/07 09:00:44;;;;;;;25.98;19.35;;;;;;;;;;5048766;28;20070;-55
2022/01/07 09:03:09;;;;;;;34.50;19.20;;;;;;;;;;5050320;28;20021;-55
2022/01/07 09:05:34;;;;;;;19.55;17.00;;;;;;;;;;5048755;28;20033;-55
2022/01/07 09:07:59;;;;;;;20.67;17.60;;;;;;;;;;5050499;28;20021;-56
2022/01/07 09:10:24;;;;;;;24.13;18.70;;;;;;;;;;5048757;28;20029;-55
2022/01/07 09:12:50;;;;;;;26.52;18.83;;;;;;;;;;5050200;28;20021;-55
2022/01/07 09:15:15;;;;;;;27.13;18.45;;;;;;;;;;5048456;28;20041;-55
2022/01/07 09:17:40;;;;;;;26.57;18.37;;;;;;;;;;5048981;28;20174;-54
2022/01/07 09:20:06;;;;;;;28.17;19.95;;;;;;;;;;5058799;28;20468;-55
2022/01/07 09:22:31;;;;;;;24.13;19.60;;;;;;;;;;5046524;28;20025;-54
2022/01/07 09:24:56;;;;;;;27.65;18.60;;;;;;;;;;5047484;28;20029;-56
2022/01/07 09:27:22;;;;;;;24.35;17.45;;;;;;;;;;5049009;28;20429;-55
2022/01/07 09:29:47;;;;;;;21.73;17.83;;;;;;;;;;5048377;28;20041;-55
2022/01/07 09:32:12;;;;;;;32.55;19.77;;;;;;;;;;5048924;28;20014;-55
2022/01/07 09:34:38;;;;;;;33.50;19.15;;;;;;;;;;5051821;28;20412;-55
2022/01/07 09:37:04;;;;;;;24.90;18.98;;;;;;;;;;5053900;28;20028;-55
2022/01/07 09:39:29;;;;;;;25.42;17.70;;;;;;;;;;5052400;28;20393;-56
2022/01/07 09:41:54;;;;;;;27.30;19.13;;;;;;;;;;5054226;28;20102;-56
2022/01/07 09:44:19;;;;;;;20.88;16.88;;;;;;;;;;5052789;28;20505;-55
2022/01/07 09:46:45;;;;;;;22.75;16.75;;;;;;;;;;5053308;28;20029;-53
2022/01/07 09:49:10;;;;;;;20.05;17.35;;;;;;;;;;5050635;28;20037;-55
2022/01/07 09:51:37;;;;;;;17.48;14.73;;;;;;;;;;5052454;28;20024;-56
2022/01/07 09:54:02;;;;;;;19.02;15.27;;;;;;;;;;5050993;28;20484;-55
2022/01/07 09:56:28;;;;;;;24.52;16.58;;;;;;;;;;5052701;28;20024;-55
2022/01/07 09:58:53;;;;;;;21.13;14.88;;;;;;;;;;5050791;28;20495;-55
2022/01/07 10:01:20;;;;;;;46.58;15.48;;;;;;;;;;5052295;28;20025;-55
2022/01/07 10:03:45;;;;;;;21.45;14.48;;;;;;;;;;5051887;28;20056;-56
2022/01/07 10:06:18;;;;;;;22.85;18.13;;;;;;;;;;5053615;28;20064;-55
2022/01/07 10:08:44;;;;;;;19.27;15.18;;;;;;;;;;5052294;28;20052;-56
2022/01/07 10:11:18;;;;;;;21.27;18.20;;;;;;;;;;5053817;28;20170;-55
2022/01/07 10:13:47;;;;;;;22.00;15.95;;;;;;;;;;5052228;28;20400;-55
2022/01/07 10:16:20;;;;;;;19.15;14.57;;;;;;;;;;5053209;28;20396;-55
2022/01/07 10:18:47;;;;;;;22.02;14.98;;;;;;;;;;5051890;28;20416;-55
2022/01/07 10:21:12;;;;;;;26.67;16.38;;;;;;;;;;5053377;28;20024;-56
2022/01/07 10:23:38;;;;;;;22.30;15.73;;;;;;;;;;5052309;28;20021;-55
2022/01/07 10:26:10;;;;;;;25.58;16.63;;;;;;;;;;5051698;28;20120;-55
2022/01/07 10:28:36;;;;;;;18.30;15.50;;;;;;;;;;5053108;28;20079;-55
2022/01/07 10:31:02;;;;;;;18.65;15.15;;;;;;;;;;5051609;28;20119;-56
2022/01/07 10:33:27;;;;;;;21.85;15.65;;;;;;;;;;5053335;28;20108;-55
2022/01/07 10:35:55;;;;;;;27.88;16.60;;;;;;;;;;5050674;28;20056;-55
2022/01/07 10:38:22;;;;;;;22.33;16.30;;;;;;;;;;5051735;28;20502;-56
2022/01/07 10:40:48;;;;;;;21.15;14.50;;;;;;;;;;5050226;28;20041;-55
2022/01/07 10:43:24;;;;;;;24.70;16.17;;;;;;;;;;5052597;28;20511;-55
2022/01/07 10:45:50;;;;;;;27.52;14.07;;;;;;;;;;5050140;28;20047;-55
2022/01/07 10:48:16;;;;;;;24.38;15.35;;;;;;;;;;5053087;28;20009;-56
2022/01/07 10:50:52;;;;;;;28.50;14.85;;;;;;;;;;5051262;28;20108;-55
2022/01/07 10:53:17;;;;;;;22.08;14.20;;;;;;;;;;5052756;28;20103;-56
2022/01/07 10:56:08;;;;;;;19.38;13.90;;;;;;;;;;5051251;28;20121;-55
2022/01/07 10:58:43;;;;;;;22.23;14.75;;;;;;;;;;5048013;28;20132;-55
2022/01/07 11:01:24;;;;;;;22.85;14.25;;;;;;;;;;5051238;28;20044;-56
2022/01/07 11:03:54;;;;;;;20.73;14.35;;;;;;;;;;5051079;28;20102;-56
2022/01/07 11:06:20;;;;;;;15.57;12.98;;;;;;;;;;5052836;28;20045;-55
2022/01/07 11:08:47;;;;;;;17.35;13.40;;;;;;;;;;5050890;28;20625;-56
2022/01/07 11:11:13;;;;;;;14.63;12.57;;;;;;;;;;5048595;28;20385;-55
2022/01/07 11:13:38;;;;;;;17.90;15.93;;;;;;;;;;5054277;28;20009;-56
2022/01/07 11:16:04;;;;;;;24.30;12.60;;;;;;;;;;5050621;28;20041;-56
2022/01/07 11:18:29;;;;;;;15.98;12.10;;;;;;;;;;5052355;28;20860;-56
2022/01/07 11:20:58;;;;;;;15.93;12.68;;;;;;;;;;5051647;28;20040;-55
2022/01/07 11:23:23;;;;;;;;;;;;;;;;;;5057862;28;20496;-55
2022/01/07 11:25:57;;;;;;;18.83;12.98;;;;;;;;;;5056963;28;20762;-55
2022/01/07 11:28:23;;;;;;;14.55;12.80;;;;;;;;;;5060720;28;20104;-55
2022/01/07 11:30:48;;;;;;;25.80;14.27;;;;;;;;;;5050265;28;20120;-56
2022/01/07 11:33:21;;;;;;;33.17;14.95;;;;;;;;;;5053003;28;20036;-56
2022/01/07 11:35:47;;;;;;;21.00;14.23;;;;;;;;;;5048553;28;20088;-56
2022/01/07 11:38:13;;;;;;;21.27;15.55;;;;;;;;;;5060312;28;20060;-56
2022/01/07 11:40:38;;;;;;;22.48;14.52;;;;;;;;;;5069852;28;20033;-56
2022/01/07 11:43:24;;;;;;;23.08;17.95;;;;;;;;;;5066643;28;20146;-56
2022/01/07 11:45:49;;;;;;;22.55;15.38;;;;;;;;;;5064531;28;20032;-56
2022/01/07 11:48:23;;;;;;;22.27;13.60;;;;;;;;;;5050822;28;20070;-56
2022/01/07 11:50:55;;;;;;;28.85;15.48;;;;;;;;;;5067431;28;20420;-56
2022/01/07 11:53:23;;;;;;;35.25;15.80;;;;;;;;;;5067824;28;20025;-56
2022/01/07 11:55:49;;;;;;;22.65;17.05;;;;;;;;;;5069463;28;20048;-55
2022/01/07 11:58:15;;;;;;;27.92;16.10;;;;;;;;;;5054769;28;20369;-57
2022/01/07 12:00:56;;;;;;;18.52;15.95;;;;;;;;;;5049475;28;20041;-56
2022/01/07 12:03:31;;;;;;;26.60;15.55;;;;;;;;;;5045570;28;20037;-56
2022/01/07 12:05:56;;;;;;;18.60;13.88;;;;;;;;;;5043253;28;20040;-57
2022/01/07 12:08:40;;;;;;;19.63;15.95;;;;;;;;;;5054082;28;20142;-56
2022/01/07 12:11:09;;;;;;;35.50;17.00;;;;;;;;;;5046765;28;20408;-56
2022/01/07 12:13:34;;;;;;;;;;;;;;;;;;5050839;28;20361;-57
2022/01/07 12:15:59;;;;;;;26.60;14.10;;;;;;;;;;5049197;28;20354;-56
2022/01/07 12:18:30;;;;;;;22.83;14.27;;;;;;;;;;5050684;28;20052;-56
2022/01/07 12:20:55;;;;;;;14.88;13.43;;;;;;;;;;5045026;28;20044;-56
2022/01/07 12:23:21;;;;;;;15.95;10.45;;;;;;;;;;5049784;28;20428;-56
2022/01/07 12:25:51;;;;;;;23.60;13.93;;;;;;;;;;5047606;28;20035;-56
2022/01/07 12:28:16;;;;;;;15.38;11.10;;;;;;;;;;5046150;28;20025;-56
2022/01/07 12:30:43;;;;;;;15.67;12.00;;;;;;;;;;5048352;28;20488;-56
2022/01/07 12:33:09;;;;;;;17.13;10.70;;;;;;;;;;5049114;28;20013;-57
2022/01/07 12:35:35;;;;;;;18.77;11.40;;;;;;;;;;5058714;28;20094;-56
2022/01/07 12:38:08;;;;;;;12.30;10.55;;;;;;;;;;5053660;28;20103;-57
2022/01/07 12:40:33;;;;;;;17.52;10.98;;;;;;;;;;5049341;28;20266;-57
2022/01/07 12:42:58;;;;;;;17.73;10.20;;;;;;;;;;5050432;28;20096;-57
2022/01/07 12:45:24;;;;;;;29.30;11.50;;;;;;;;;;5053401;28;20036;-57
2022/01/07 12:47:52;;;;;;;21.87;10.63;;;;;;;;;;5059224;28;20431;-56
2022/01/07 12:50:17;;;;;;;23.63;11.38;;;;;;;;;;5050034;28;20490;-56
2022/01/07 12:52:43;;;;;;;17.20;9.75;;;;;;;;;;5046173;28;20499;-56
2022/01/07 12:55:11;;;;;;;15.18;10.63;;;;;;;;;;5057954;28;20041;-56
2022/01/07 12:57:42;;;;;;;15.13;10.50;;;;;;;;;;5049595;28;20059;-56
2022/01/07 13:00:08;;;;;;;13.85;11.00;;;;;;;;;;5047106;28;20045;-56
2022/01/07 13:02:33;;;;;;;23.63;11.60;;;;;;;;;;5049209;28;20458;-56
2022/01/07 13:05:14;;;;;;;13.68;8.90;;;;;;;;;;5048455;28;20043;-56
2022/01/07 13:07:43;;;;;;;14.50;10.23;;;;;;;;;;5049707;28;20021;-57
2022/01/07 13:10:08;;;;;;;21.45;8.73;;;;;;;;;;5049782;28;20034;-57
2022/01/07 13:12:34;;;;;;;15.05;9.07;;;;;;;;;;5059552;28;20039;-56
2022/01/07 13:14:59;;;;;;;12.93;10.02;;;;;;;;;;5049276;28;20037;-57
2022/01/07 13:17:28;;;;;;;17.90;10.90;;;;;;;;;;5059971;28;20025;-57
2022/01/07 13:19:53;;;;;;;;;;;;;;;;;;5057180;28;20049;-57
2022/01/07 13:22:19;;;;;;;23.10;9.57;;;;;;;;;;5049636;28;19916;-57
2022/01/07 13:24:45;;;;;;;13.32;10.18;;;;;;;;;;5048822;28;20044;-57
2022/01/07 13:27:11;;;;;;;13.25;10.57;;;;;;;;;;5050032;28;20029;-57
2022/01/07 13:29:36;;;;;;;13.18;9.40;;;;;;;;;;5048604;28;20520;-57
2022/01/07 13:32:03;;;;;;;20.35;8.57;;;;;;;;;;5053351;28;20017;-57
2022/01/07 13:34:30;;;;;;;12.68;9.60;;;;;;;;;;5049762;28;20037;-57
2022/01/07 13:37:03;;;;;;;14.57;8.82;;;;;;;;;;5052955;28;20008;-57
2022/01/07 13:39:35;;;;;;;15.20;8.90;;;;;;;;;;5050569;28;20061;-57
2022/01/07 13:42:02;;;;;;;11.57;8.68;;;;;;;;;;5050248;28;20221;-57
2022/01/07 13:44:28;;;;;;;12.90;7.28;;;;;;;;;;5046535;28;20033;-57
2022/01/07 13:46:55;;;;;;;16.48;9.05;;;;;;;;;;5050536;28;20035;-57
2022/01/07 13:49:21;;;;;;;11.63;6.25;;;;;;;;;;5048001;28;20456;-57
2022/01/07 13:51:50;;;;;;;13.00;8.27;;;;;;;;;;5051808;28;20028;-58
2022/01/07 13:54:16;;;;;;;17.42;8.27;;;;;;;;;;5047682;28;20597;-57
2022/01/07 13:57:02;;;;;;;11.68;7.90;;;;;;;;;;5059698;28;20025;-57
2022/01/07 13:59:39;;;;;;;13.88;8.38;;;;;;;;;;5052259;28;20040;-57
2022/01/07 14:02:05;;;;;;;30.23;8.98;;;;;;;;;;5061111;28;20388;-56
2022/01/07 14:04:39;;;;;;;15.00;7.60;;;;;;;;;;5059642;28;20033;-57
2022/01/07 14:07:22;;;;;;;16.98;9.77;;;;;;;;;;5048917;28;20064;-57
2022/01/07 14:10:05;;;;;;;12.90;7.75;;;;;;;;;;5049107;28;20040;-57
2022/01/07 14:12:30;;;;;;;11.57;7.53;;;;;;;;;;5048870;28;20013;-57
2022/01/07 14:15:03;;;;;;;14.25;8.77;;;;;;;;;;5052388;28;20424;-57
2022/01/07 14:26:44;;;;;;;17.08;8.43;;;;;;;;;;5053386;28;20076;-56
2022/01/07 14:29:09;;;;;;;13.75;7.03;;;;;;;;;;5052262;28;20211;-57
2022/01/07 14:31:34;;;;;;;13.07;7.90;;;;;;;;;;5056306;28;20108;-57
2022/01/07 14:33:59;;;;;;;17.02;8.38;;;;;;;;;;5059898;28;20593;-57